Lemsford, United Kingdom
Current Conditions -  °F | °C
As of 3:50 PM on Thursday 30 Oct 2014 (Local Time) from EGGW Reporting Station
Clear Clear  
Wind Chill: 16°   Ceiling: Unl
Heat Index: 16°   Visibility: 5mi
Dew Point: 15°   Wind: 7mph
Humidity: 94%   Direction: 170°S
Pressure: 30.06"   Gusts: NA
Location:  51.8°N, 0.21°W
Report Text: EGGW 301550Z 17006KT 8000 NSC 16/15 Q1018
Loading
Personal Weather Stations






























Interactive Weather Map
Tropical Storm Tracking
New forecast layout! Learn more

10-Day Weather Forecast

Advertisements
Track Severe Weather on mobile